Time;durP1;ratioP1;P1;durP2;ratioP2;P2;SDS_P1;SDS_P2;PMS_P1;PMS_P2;Temp;Humidity;BMP_temperature;BMP_pressure;BME280_temperature;BME280_humidity;BME280_pressure;Samples;Min_cycle;Max_cycle;Signal;HPM_P1;HPM_P2
2023/10/07 00:01:27;;;;;;;12.90;2.80;;;;;;;17.14;87.59;101822.50;7401669;19;20371;-66
2023/10/07 00:03:58;;;;;;;9.32;2.53;;;;;;;17.15;87.91;101824.19;7401245;19;20384;-66
2023/10/07 00:06:28;;;;;;;10.48;2.85;;;;;;;17.14;87.93;101811.63;7400511;19;19976;-66
2023/10/07 00:08:58;;;;;;;9.07;3.22;;;;;;;17.14;88.03;101822.50;7401711;19;20338;-66
2023/10/07 00:11:27;;;;;;;9.95;2.60;;;;;;;17.14;87.92;101822.50;7400847;19;20463;-66
2023/10/07 00:13:56;;;;;;;9.27;2.28;;;;;;;17.14;87.81;101817.06;7401332;19;19927;-66
2023/10/07 00:16:28;;;;;;;9.65;2.10;;;;;;;17.16;87.79;101834.06;7401337;19;19944;-66
2023/10/07 00:18:56;;;;;;;16.90;3.17;;;;;;;17.16;87.74;101830.50;7400008;19;19926;-66
2023/10/07 00:21:27;;;;;;;6.63;2.45;;;;;;;17.16;87.86;101825.91;7401038;19;20349;-66
2023/10/07 00:23:53;;;;;;;7.55;2.40;;;;;;;17.15;88.12;101816.03;7399608;19;19953;-66
2023/10/07 00:26:22;;;;;;;15.95;3.20;;;;;;;17.15;88.28;101810.59;7400917;19;19922;-66
2023/10/07 00:29:00;;;;;;;10.15;2.60;;;;;;;17.16;88.32;101819.59;7401286;19;19926;-66
2023/10/07 00:31:33;;;;;;;8.32;2.70;;;;;;;17.15;88.65;101807.03;7401091;19;20246;-66
2023/10/07 00:34:13;;;;;;;17.38;3.08;;;;;;;17.13;88.73;101806.34;7401038;19;19919;-66
2023/10/07 00:36:47;;;;;;;10.10;2.90;;;;;;;17.10;89.13;101798.59;7401052;19;19926;-66
2023/10/07 00:39:23;;;;;;;11.75;2.92;;;;;;;17.10;88.70;101793.16;7400769;19;20383;-66
2023/10/07 00:41:57;;;;;;;10.55;2.85;;;;;;;17.09;89.52;101802.34;7398585;19;19919;-66
2023/10/07 00:44:31;;;;;;;9.27;2.90;;;;;;;17.10;88.88;101804.88;7401479;19;19925;-66
2023/10/07 00:47:12;;;;;;;12.20;3.35;;;;;;;17.11;89.37;101812.03;7399217;19;19914;-66
2023/10/07 00:49:50;;;;;;;10.00;2.42;;;;;;;17.11;89.25;101814.75;7400851;19;19922;-66
2023/10/07 00:52:32;;;;;;;12.70;3.08;;;;;;;17.13;89.15;101807.22;7400847;19;20248;-65
2023/10/07 00:55:17;;;;;;;10.32;2.70;;;;;;;17.13;88.84;101803.63;7400048;19;19919;-65
2023/10/07 00:57:53;;;;;;;9.55;2.78;;;;;;;17.14;89.30;101805.31;7399587;19;20266;-65
2023/10/07 01:00:41;;;;;;;5.65;2.17;;;;;;;17.14;89.20;101819.78;7398719;19;19932;-65
2023/10/07 01:03:32;;;;;;;12.20;2.63;;;;;;;17.16;89.85;101823.16;7400142;19;19925;-65
2023/10/07 01:06:14;;;;;;;9.60;2.67;;;;;;;17.09;90.88;101814.09;7399432;19;19919;-65
2023/10/07 01:08:50;;;;;;;10.88;2.78;;;;;;;17.02;90.99;101813.19;7400285;19;19940;-65
2023/10/07 01:11:24;;;;;;;12.77;2.72;;;;;;;16.95;91.92;101809.59;7398662;19;20268;-67
2023/10/07 01:13:56;;;;;;;13.30;2.78;;;;;;;16.90;92.46;101812.06;7399117;19;19993;-65
2023/10/07 01:16:40;;;;;;;9.35;2.55;;;;;;;16.88;92.64;101805.94;7399844;19;19927;-65
2023/10/07 01:19:28;;;;;;;8.57;2.67;;;;;;;16.87;92.91;101806.16;7398479;19;19914;-66
2023/10/07 01:21:58;;;;;;;10.57;2.78;;;;;;;16.85;93.17;101811.78;7399406;19;19923;-65
2023/10/07 01:24:44;;;;;;;10.02;3.08;;;;;;;16.80;93.82;101800.63;7398540;19;19959;-65
2023/10/07 01:27:22;;;;;;;10.15;2.50;;;;;;;16.73;95.82;101807.91;7398316;19;19929;-65
2023/10/07 01:29:59;;;;;;;11.57;2.72;;;;;;;16.65;96.04;101819.75;7398277;19;19976;-65
2023/10/07 01:32:31;;;;;;;14.68;2.70;;;;;;;16.57;96.89;101814.44;7398274;19;20325;-66
2023/10/07 01:35:05;;;;;;;16.33;3.15;;;;;;;16.52;97.69;101805.16;7399187;19;19919;-65
2023/10/07 01:37:50;;;;;;;11.80;3.72;;;;;;;16.47;98.52;101802.16;7399252;19;19937;-65
2023/10/07 01:40:27;;;;;;;10.05;3.38;;;;;;;16.40;99.69;101802.06;7398100;19;19931;-66
2023/10/07 01:42:56;;;;;;;12.32;3.15;;;;;;;16.37;100.00;101802.47;7398950;19;20332;-66
2023/10/07 01:45:34;;;;;;;6.18;2.55;;;;;;;16.34;100.00;101803.72;7398741;19;20257;-66
2023/10/07 01:48:07;;;;;;;12.80;3.28;;;;;;;16.33;100.00;101821.06;7397826;19;19918;-66
2023/10/07 01:50:40;;;;;;;12.68;2.80;;;;;;;16.32;100.00;101794.88;7398929;19;19943;-66
2023/10/07 01:53:09;;;;;;;11.40;3.20;;;;;;;16.33;100.00;101803.88;7398566;19;19926;-66
2023/10/07 01:55:42;;;;;;;11.27;3.28;;;;;;;16.32;100.00;101797.59;7403756;19;19914;-66
2023/10/07 01:58:13;;;;;;;10.32;2.83;;;;;;;16.36;100.00;101808.94;7403920;19;19914;-66
2023/10/07 02:00:46;;;;;;;10.77;3.70;;;;;;;16.37;100.00;101804.34;7404440;19;19922;-66
2023/10/07 02:03:22;;;;;;;12.23;2.72;;;;;;;16.38;100.00;101787.00;7404506;19;19930;-66
2023/10/07 02:05:51;;;;;;;12.95;3.83;;;;;;;16.39;100.00;101802.28;7403609;19;19925;-66
2023/10/07 02:08:22;;;;;;;14.57;3.53;;;;;;;16.41;100.00;101802.91;7403998;19;19994;-66
2023/10/07 02:10:56;;;;;;;12.55;3.20;;;;;;;16.42;100.00;101797.31;7403504;19;19918;-66
2023/10/07 02:13:27;;;;;;;11.45;2.75;;;;;;;16.44;100.00;101797.94;7403482;19;20291;-66
2023/10/07 02:15:56;;;;;;;9.52;2.95;;;;;;;16.45;100.00;101809.66;7403665;19;19922;-66
2023/10/07 02:18:27;;;;;;;12.07;3.53;;;;;;;16.47;100.00;101804.88;7403162;19;20587;-66
2023/10/07 02:21:06;;;;;;;11.50;3.00;;;;;;;16.49;99.90;101800.06;7402867;19;19915;-66
2023/10/07 02:23:37;;;;;;;9.85;2.92;;;;;;;16.51;100.00;101803.47;7403128;19;19947;-66
2023/10/07 02:26:14;;;;;;;11.00;3.22;;;;;;;16.52;100.00;101799.72;7403570;19;20299;-66
2023/10/07 02:28:44;;;;;;;12.32;3.53;;;;;;;16.54;99.79;101792.19;7403854;19;19934;-66
2023/10/07 02:31:16;;;;;;;9.10;2.53;;;;;;;16.56;99.84;101796.41;7403075;19;19975;-66
2023/10/07 02:33:45;;;;;;;9.70;3.28;;;;;;;16.58;99.67;101794.34;7403518;19;19915;-66
2023/10/07 02:36:28;;;;;;;14.25;3.22;;;;;;;16.60;99.76;101799.63;7402952;19;19918;-66
2023/10/07 02:39:00;;;;;;;10.45;2.70;;;;;;;16.61;99.91;101804.84;7402897;19;19919;-66
2023/10/07 02:41:32;;;;;;;9.63;2.85;;;;;;;16.63;99.93;101810.09;7403279;19;19946;-66
2023/10/07 02:44:05;;;;;;;8.73;2.88;;;;;;;16.63;99.37;101807.38;7402743;19;19970;-66
2023/10/07 02:46:34;;;;;;;10.27;2.80;;;;;;;16.65;98.79;101810.75;7402736;19;19921;-66
2023/10/07 02:49:10;;;;;;;9.70;2.42;;;;;;;16.67;98.82;101812.25;7402019;19;19927;-66
2023/10/07 02:51:45;;;;;;;7.15;2.38;;;;;;;16.70;98.50;101819.16;7402644;19;19948;-66
2023/10/07 02:54:18;;;;;;;9.15;2.72;;;;;;;16.72;98.87;101819.81;7403452;19;19919;-66
2023/10/07 02:57:06;;;;;;;14.93;2.90;;;;;;;16.73;98.58;101824.25;7402088;19;19970;-66
2023/10/07 02:59:41;;;;;;;11.63;2.67;;;;;;;16.76;98.75;101812.97;7402680;19;19923;-66
2023/10/07 03:02:21;;;;;;;7.72;3.00;;;;;;;16.77;98.21;101799.16;7402186;19;19922;-66
2023/10/07 03:05:13;;;;;;;11.20;2.58;;;;;;;16.79;98.23;101816.13;7402331;19;19922;-66
2023/10/07 03:07:49;;;;;;;7.70;2.30;;;;;;;16.84;97.91;101809.25;7402935;19;19923;-66
2023/10/07 03:10:30;;;;;;;11.43;2.42;;;;;;;16.86;97.73;101807.19;7401900;19;20252;-66
2023/10/07 03:13:02;;;;;;;10.20;2.63;;;;;;;16.87;97.69;101798.81;7401613;19;19927;-66
2023/10/07 03:15:44;;;;;;;9.30;2.35;;;;;;;16.88;97.89;101803.22;7403033;19;19926;-66
2023/10/07 03:18:30;;;;;;;8.52;2.33;;;;;;;16.88;97.97;101803.22;7401016;19;20382;-66
2023/10/07 03:21:11;;;;;;;10.25;2.50;;;;;;;16.89;97.66;101802.19;7402159;19;19922;-66
2023/10/07 03:23:45;;;;;;;11.15;2.33;;;;;;;16.89;97.51;101794.03;7401843;19;20278;-67
2023/10/07 03:26:17;;;;;;;9.85;2.50;;;;;;;16.91;97.43;101800.13;7402777;19;20562;-67
2023/10/07 03:28:55;;;;;;;9.32;2.45;;;;;;;16.94;97.50;101807.06;7402857;19;20624;-67
2023/10/07 03:31:33;;;;;;;7.35;2.13;;;;;;;16.94;97.43;101805.19;7400775;19;19923;-66
2023/10/07 03:34:07;;;;;;;10.05;2.50;;;;;;;16.95;96.96;101804.16;7401888;19;19946;-66
2023/10/07 03:37:07;;;;;;;8.95;2.72;;;;;;;16.97;97.26;101803.94;7402143;19;19935;-66
2023/10/07 03:39:55;;;;;;;8.82;2.95;;;;;;;16.96;97.43;101802.22;7401308;19;20257;-66
2023/10/07 03:42:23;;;;;;;9.20;2.30;;;;;;;16.97;97.36;101799.31;7401791;19;19911;-66
2023/10/07 03:44:55;;;;;;;9.73;2.38;;;;;;;16.99;97.43;101799.16;7402099;19;19980;-66
2023/10/07 03:47:25;;;;;;;9.52;2.20;;;;;;;16.99;96.70;101796.41;7400959;19;19918;-67
2023/10/07 03:49:58;;;;;;;9.90;2.13;;;;;;;17.00;97.04;101798.13;7401086;19;19926;-66
2023/10/07 03:52:28;;;;;;;8.52;2.53;;;;;;;17.00;96.94;101793.47;7401919;19;19910;-66
2023/10/07 03:54:57;;;;;;;10.00;2.75;;;;;;;17.01;96.72;101792.44;7401135;19;19945;-67
2023/10/07 03:57:25;;;;;;;9.18;2.55;;;;;;;17.02;96.55;101794.16;7402135;19;20549;-66
2023/10/07 03:59:58;;;;;;;10.57;2.10;;;;;;;17.02;96.59;101787.84;7400832;19;20398;-67
2023/10/07 04:02:35;;;;;;;12.15;2.38;;;;;;;17.02;97.02;101791.41;7400666;19;19948;-66
2023/10/07 04:05:10;;;;;;;9.10;2.47;;;;;;;17.03;96.75;101798.56;7400279;19;19926;-66
2023/10/07 04:07:38;;;;;;;6.03;2.30;;;;;;;17.01;96.51;101797.06;7401395;19;19922;-66
2023/10/07 04:10:20;;;;;;;7.30;1.90;;;;;;;17.03;96.79;101805.88;7400923;19;19934;-66
2023/10/07 04:12:49;;;;;;;9.20;2.42;;;;;;;17.01;96.43;101800.63;7400955;19;19926;-66
2023/10/07 04:15:28;;;;;;;6.90;2.17;;;;;;;17.02;96.40;101798.75;7401783;19;19914;-67
2023/10/07 04:17:57;;;;;;;12.98;2.33;;;;;;;17.01;96.99;101800.63;7398079;19;20337;-66
2023/10/07 04:20:42;;;;;;;8.63;2.42;;;;;;;17.01;96.76;101806.06;7400787;19;19915;-66
2023/10/07 04:23:11;;;;;;;10.45;2.75;;;;;;;17.01;96.77;101797.91;7398950;19;19922;-66
2023/10/07 04:25:47;;;;;;;6.22;2.30;;;;;;;17.03;96.33;101803.16;7400250;19;19922;-66
2023/10/07 04:28:16;;;;;;;13.10;2.38;;;;;;;17.03;96.56;101800.44;7401758;19;19919;-66
2023/10/07 04:30:53;;;;;;;9.68;2.40;;;;;;;17.03;96.33;101801.28;7400464;19;20390;-66
2023/10/07 04:33:28;;;;;;;11.95;2.55;;;;;;;17.04;96.33;101797.50;7401201;19;19944;-66
2023/10/07 04:36:04;;;;;;;11.05;2.35;;;;;;;17.05;96.02;101791.00;7399700;19;20018;-66
2023/10/07 04:38:52;;;;;;;10.65;2.50;;;;;;;17.06;96.36;101794.59;7399881;19;19923;-66
2023/10/07 04:41:33;;;;;;;8.10;2.22;;;;;;;17.06;96.27;101797.31;7398951;19;20400;-66
2023/10/07 04:44:20;;;;;;;6.70;2.42;;;;;;;17.04;96.54;101789.31;7400944;19;19914;-67
2023/10/07 04:46:56;;;;;;;11.40;2.85;;;;;;;17.04;96.41;101792.03;7400127;19;19954;-66
2023/10/07 04:49:36;;;;;;;12.43;2.33;;;;;;;17.04;96.29;101786.59;7400697;19;19962;-66
2023/10/07 04:52:05;;;;;;;10.75;2.65;;;;;;;17.03;96.69;101795.00;7401655;19;20003;-67
2023/10/07 04:54:36;;;;;;;9.23;2.88;;;;;;;17.02;96.31;101794.16;7399684;19;19914;-66
2023/10/07 04:57:09;;;;;;;5.00;2.42;;;;;;;17.02;96.74;101794.16;7400032;19;20528;-67
2023/10/07 04:59:45;;;;;;;13.95;2.63;;;;;;;17.01;96.29;101797.91;7400524;19;19922;-66
2023/10/07 05:02:15;;;;;;;7.50;2.00;;;;;;;17.02;96.36;101791.41;7400070;19;20245;-67
2023/10/07 05:04:49;;;;;;;10.02;3.25;;;;;;;17.03;96.73;101776.78;7400676;19;19950;-67
2023/10/07 05:07:24;;;;;;;7.68;2.63;;;;;;;17.03;96.41;101775.94;7400221;19;19927;-66
2023/10/07 05:09:52;;;;;;;7.03;1.92;;;;;;;17.01;96.83;101773.41;7400149;19;19923;-66
2023/10/07 05:12:20;;;;;;;13.10;2.60;;;;;;;17.00;96.92;101777.16;7398795;19;19926;-66
2023/10/07 05:14:49;;;;;;;11.90;2.35;;;;;;;17.02;96.49;101787.84;7400308;19;19922;-66
2023/10/07 05:17:20;;;;;;;10.25;2.35;;;;;;;17.02;96.64;101775.09;7398876;19;19982;-66
2023/10/07 05:19:49;;;;;;;9.10;2.50;;;;;;;17.02;96.25;101779.69;7399514;19;19922;-66
2023/10/07 05:22:18;;;;;;;10.23;2.50;;;;;;;17.02;96.22;101774.25;7399395;19;19930;-66
2023/10/07 05:24:56;;;;;;;13.13;3.08;;;;;;;17.01;96.13;101776.13;7399231;19;19926;-66
2023/10/07 05:27:25;;;;;;;11.35;2.92;;;;;;;17.01;96.55;101773.41;7398509;19;19918;-67
2023/10/07 05:29:55;;;;;;;15.85;2.60;;;;;;;17.02;96.61;101776.97;7399241;19;19914;-66
2023/10/07 05:32:26;;;;;;;9.10;3.10;;;;;;;17.02;96.22;101764.19;7398369;19;20368;-67
2023/10/07 05:34:57;;;;;;;11.60;2.63;;;;;;;17.00;96.23;101771.72;7399161;19;19923;-66
2023/10/07 05:37:25;;;;;;;6.78;2.55;;;;;;;17.02;96.27;101764.19;7399152;19;20399;-66
2023/10/07 05:40:03;;;;;;;9.48;3.00;;;;;;;17.02;96.15;101777.81;7399338;19;19926;-67
2023/10/07 05:42:32;;;;;;;9.90;2.47;;;;;;;17.02;96.61;101757.91;7399291;19;19952;-66
2023/10/07 05:45:00;;;;;;;11.50;2.75;;;;;;;17.02;96.16;101757.91;7398871;19;19914;-67
2023/10/07 05:47:32;;;;;;;9.32;2.65;;;;;;;17.02;96.69;101761.47;7397844;19;19944;-66
2023/10/07 05:50:01;;;;;;;10.50;2.53;;;;;;;17.00;96.29;101760.81;7398380;19;19919;-66
2023/10/07 05:52:31;;;;;;;13.57;3.42;;;;;;;17.02;96.25;101775.09;7398088;19;19907;-66
2023/10/07 05:55:02;;;;;;;11.75;2.67;;;;;;;17.02;96.18;101785.13;7398151;19;19942;-66
2023/10/07 05:57:30;;;;;;;8.02;2.58;;;;;;;17.01;96.33;101767.09;7398320;19;19944;-66
2023/10/07 05:59:59;;;;;;;10.07;2.53;;;;;;;17.00;96.38;101773.63;7398778;19;19930;-66
2023/10/07 06:02:30;;;;;;;7.30;2.35;;;;;;;17.01;96.29;101778.00;7397646;19;19914;-66
2023/10/07 06:04:59;;;;;;;7.47;2.30;;;;;;;17.00;96.13;101776.34;7396886;19;19926;-66
2023/10/07 06:07:28;;;;;;;8.63;2.33;;;;;;;16.99;96.62;101778.22;7397950;19;19918;-66
2023/10/07 06:09:56;;;;;;;9.73;2.65;;;;;;;17.00;96.29;101774.44;7398192;19;19915;-66
2023/10/07 06:12:25;;;;;;;7.25;2.22;;;;;;;17.00;96.27;101771.72;7397027;19;19947;-66
2023/10/07 06:14:55;;;;;;;12.80;2.67;;;;;;;17.01;96.35;101781.56;7397530;19;19919;-66
2023/10/07 06:17:26;;;;;;;6.35;2.38;;;;;;;17.00;96.09;101768.97;7396662;19;19923;-66
2023/10/07 06:19:57;;;;;;;5.80;2.63;;;;;;;16.98;96.60;101771.06;7395922;19;19922;-66
2023/10/07 06:22:26;;;;;;;13.95;2.28;;;;;;;16.96;96.77;101781.31;7396234;19;19919;-67
2023/10/07 06:25:00;;;;;;;8.70;2.40;;;;;;;16.95;97.08;101773.34;7396591;19;19922;-66
2023/10/07 06:27:29;;;;;;;5.95;2.55;;;;;;;16.93;97.39;101767.25;7396745;19;19918;-66
2023/10/07 06:29:58;;;;;;;11.07;2.63;;;;;;;16.90;97.61;101764.94;7397126;19;19948;-67
2023/10/07 06:32:41;;;;;;;15.45;2.80;;;;;;;16.85;97.96;101765.53;7395816;19;19926;-66
2023/10/07 06:35:14;;;;;;;8.70;3.03;;;;;;;16.80;98.97;101757.09;7394905;19;19906;-66
2023/10/07 06:37:43;;;;;;;6.82;2.17;;;;;;;16.75;98.64;101757.69;7394557;19;19941;-66
2023/10/07 06:40:25;;;;;;;12.30;2.63;;;;;;;16.72;99.43;101759.97;7396062;19;19930;-66
2023/10/07 06:42:58;;;;;;;5.55;2.10;;;;;;;16.69;99.38;101774.81;7401740;19;19922;-66
2023/10/07 06:45:29;;;;;;;9.40;2.20;;;;;;;16.69;99.19;101779.41;7403331;19;19918;-66
2023/10/07 06:48:02;;;;;;;9.73;3.15;;;;;;;16.70;99.56;101800.13;7402518;19;20660;-66
2023/10/07 06:50:33;;;;;;;12.77;3.58;;;;;;;16.70;99.96;101786.50;7403049;19;19960;-66
2023/10/07 06:53:02;;;;;;;12.20;2.97;;;;;;;16.69;99.70;101784.84;7401641;19;19918;-66
2023/10/07 06:55:40;;;;;;;8.10;1.80;;;;;;;16.70;100.00;101787.34;7401245;19;20256;-66
2023/10/07 06:58:09;;;;;;;8.02;2.38;;;;;;;16.69;99.80;101782.13;7402152;19;20252;-66
2023/10/07 07:00:47;;;;;;;9.02;2.47;;;;;;;16.71;99.73;101782.75;7403118;19;20008;-67
2023/10/07 07:03:18;;;;;;;5.85;2.40;;;;;;;16.71;99.85;101777.31;7401845;19;19922;-66
2023/10/07 07:05:49;;;;;;;11.80;2.20;;;;;;;16.71;99.92;101771.88;7402060;19;19948;-67
2023/10/07 07:08:22;;;;;;;8.32;2.30;;;;;;;16.71;99.54;101769.16;7402454;19;19959;-66
2023/10/07 07:10:55;;;;;;;6.03;1.92;;;;;;;16.73;99.82;101772.53;7402058;19;19944;-66
2023/10/07 07:13:27;;;;;;;7.75;2.40;;;;;;;16.74;99.74;101768.75;7400996;19;19922;-66
2023/10/07 07:15:57;;;;;;;8.82;2.80;;;;;;;16.74;99.47;101780.47;7401151;19;19944;-66
2023/10/07 07:18:28;;;;;;;7.32;2.50;;;;;;;16.77;98.71;101784.72;7401656;19;19927;-66
2023/10/07 07:21:14;;;;;;;8.27;2.25;;;;;;;16.81;98.45;101771.56;7401259;19;19922;-66
2023/10/07 07:23:45;;;;;;;13.20;2.40;;;;;;;16.84;98.62;101772.00;7401383;19;19914;-66
2023/10/07 07:26:18;;;;;;;7.25;2.63;;;;;;;16.86;98.17;101791.72;7401277;19;19918;-66
2023/10/07 07:28:47;;;;;;;7.97;1.98;;;;;;;16.89;98.41;101793.19;7400856;19;19982;-66
2023/10/07 07:31:25;;;;;;;9.25;2.00;;;;;;;16.91;98.36;101799.28;7401483;19;19948;-66
2023/10/07 07:34:06;;;;;;;8.38;2.30;;;;;;;16.92;98.10;101798.22;7401653;19;20004;-66
2023/10/07 07:36:47;;;;;;;7.75;2.17;;;;;;;16.94;97.84;101804.31;7401882;19;20376;-66
2023/10/07 07:39:19;;;;;;;8.05;2.13;;;;;;;16.93;98.09;101817.09;7400857;19;19930;-66
2023/10/07 07:42:00;;;;;;;13.10;3.28;;;;;;;16.93;98.35;101830.72;7400723;19;19919;-66
2023/10/07 07:44:37;;;;;;;9.77;2.60;;;;;;;16.93;97.91;101825.25;7401491;19;19969;-66
2023/10/07 07:47:06;;;;;;;9.10;2.30;;;;;;;16.93;97.73;101830.72;7398795;19;19919;-66
2023/10/07 07:49:38;;;;;;;9.77;1.98;;;;;;;16.93;97.68;101816.25;7400664;19;19945;-66
2023/10/07 07:52:11;;;;;;;13.63;2.67;;;;;;;16.95;97.57;101808.75;7398570;19;19922;-66
2023/10/07 07:54:40;;;;;;;9.43;2.15;;;;;;;16.97;97.10;101812.94;7400899;19;20017;-66
2023/10/07 07:57:12;;;;;;;8.00;2.35;;;;;;;17.02;96.78;101809.63;7401686;19;19940;-65
2023/10/07 07:59:43;;;;;;;;;;;;;;;16.93;97.13;101827.97;7403498;19;19978;-66
2023/10/07 08:02:16;;;;;;;7.80;2.38;;;;;;;17.07;96.34;101809.88;7400471;19;19919;-66
2023/10/07 08:04:47;;;;;;;8.10;2.20;;;;;;;17.13;96.53;101801.75;7401172;19;19925;-66
2023/10/07 08:07:27;;;;;;;9.93;2.58;;;;;;;17.20;95.78;101804.56;7401044;19;19926;-66
2023/10/07 08:09:58;;;;;;;7.32;2.17;;;;;;;17.28;95.40;101800.84;7400865;19;20258;-66
2023/10/07 08:12:31;;;;;;;7.35;2.40;;;;;;;17.33;94.90;101803.81;7398691;19;20252;-66
2023/10/07 08:15:09;;;;;;;7.68;2.50;;;;;;;17.38;94.43;101813.06;7401217;19;19930;-66
2023/10/07 08:17:39;;;;;;;9.52;2.30;;;;;;;17.39;94.66;101811.16;7400103;19;19959;-67
2023/10/07 08:20:11;;;;;;;7.90;2.15;;;;;;;17.39;93.94;101830.22;7400320;19;19937;-66
2023/10/07 08:22:45;;;;;;;9.40;2.38;;;;;;;17.42;94.27;101808.06;7400938;19;19914;-65
2023/10/07 08:25:18;;;;;;;5.65;2.47;;;;;;;17.45;93.89;101834.91;7401416;19;19918;-66
2023/10/07 08:27:49;;;;;;;6.93;2.30;;;;;;;17.48;93.17;101823.59;7400800;19;19918;-66
2023/10/07 08:30:30;;;;;;;8.75;2.42;;;;;;;17.52;92.97;101844.81;7400956;19;20324;-66
2023/10/07 08:33:01;;;;;;;8.38;2.03;;;;;;;17.53;92.22;101832.03;7400911;19;19938;-66
2023/10/07 08:35:29;;;;;;;14.23;2.53;;;;;;;17.54;92.09;101831.00;7400510;19;19953;-65
2023/10/07 08:38:19;;;;;;;5.95;2.20;;;;;;;17.57;91.75;101836.03;7399642;19;19919;-66
2023/10/07 08:40:56;;;;;;;4.78;1.98;;;;;;;17.58;91.84;101832.31;7399925;19;19925;-66
2023/10/07 08:43:32;;;;;;;9.70;2.38;;;;;;;17.62;91.78;101841.75;7400930;19;20272;-66
2023/10/07 08:46:07;;;;;;;6.43;2.35;;;;;;;17.68;90.63;101840.97;7400189;19;19921;-66
2023/10/07 08:48:38;;;;;;;7.13;2.00;;;;;;;17.77;90.22;101839.78;7399830;19;19935;-66
2023/10/07 08:51:14;;;;;;;9.73;2.92;;;;;;;17.83;90.43;101859.91;7400212;19;19918;-65
2023/10/07 08:53:47;;;;;;;7.75;2.03;;;;;;;17.85;89.21;101861.41;7399915;19;19915;-66
2023/10/07 08:56:18;;;;;;;5.80;2.13;;;;;;;17.86;89.70;101849.44;7400094;19;19929;-66
2023/10/07 08:58:49;;;;;;;10.13;2.25;;;;;;;17.86;89.37;101852.19;7399892;19;20004;-66
2023/10/07 09:01:24;;;;;;;6.63;1.77;;;;;;;17.86;88.06;101846.72;7400450;19;19930;-65
2023/10/07 09:03:56;;;;;;;8.25;2.30;;;;;;;17.90;88.69;101850.75;7398775;19;19939;-65
2023/10/07 09:06:32;;;;;;;9.38;2.95;;;;;;;17.97;88.29;101857.06;7397630;19;19934;-66
2023/10/07 09:09:06;;;;;;;10.38;2.53;;;;;;;18.02;87.77;101846.41;7397405;19;19919;-66
2023/10/07 09:11:37;;;;;;;9.55;2.72;;;;;;;18.04;87.37;101868.00;7398800;19;19930;-66
2023/10/07 09:14:10;;;;;;;8.85;2.03;;;;;;;18.03;86.69;101861.69;7398917;19;19917;-66
2023/10/07 09:16:42;;;;;;;8.52;2.17;;;;;;;18.10;86.51;101850.84;7399694;19;19941;-67
2023/10/07 09:19:15;;;;;;;9.63;2.25;;;;;;;18.21;86.02;101846.72;7398821;19;19922;-66
2023/10/07 09:21:45;;;;;;;12.30;2.50;;;;;;;18.31;84.62;101831.63;7399071;19;19922;-66
2023/10/07 09:24:26;;;;;;;6.90;2.38;;;;;;;18.36;83.30;101812.75;7399561;19;19906;-66
2023/10/07 09:26:59;;;;;;;6.78;2.00;;;;;;;18.39;83.74;101822.41;7398643;19;20287;-67
2023/10/07 09:29:32;;;;;;;9.70;2.35;;;;;;;18.42;83.89;101824.75;7398175;19;19929;-66
2023/10/07 09:32:16;;;;;;;9.68;2.38;;;;;;;18.43;83.66;101830.00;7398894;19;20380;-66
2023/10/07 09:34:46;;;;;;;9.13;2.35;;;;;;;18.44;84.01;101828.94;7398760;19;19922;-66
2023/10/07 09:37:18;;;;;;;11.88;2.60;;;;;;;18.44;84.31;101837.13;7398732;19;19918;-66
2023/10/07 09:39:54;;;;;;;8.30;2.05;;;;;;;18.41;83.77;101828.53;7399848;19;19918;-66
2023/10/07 09:42:26;;;;;;;7.90;2.65;;;;;;;18.36;84.18;101840.06;7398654;19;20459;-66
2023/10/07 09:45:10;;;;;;;9.70;2.67;;;;;;;18.29;83.57;101839.19;7398374;19;19958;-66
2023/10/07 09:47:39;;;;;;;11.38;4.00;;;;;;;18.23;84.90;101844.59;7398767;19;20488;-66
2023/10/07 09:50:19;;;;;;;7.55;2.70;;;;;;;18.17;84.43;101840.78;7397636;19;19927;-66
2023/10/07 09:52:52;;;;;;;7.20;2.30;;;;;;;18.13;84.29;101862.19;7398050;19;20345;-66
2023/10/07 09:55:48;;;;;;;9.07;2.47;;;;;;;18.06;84.91;101860.47;7396479;19;19915;-66
2023/10/07 09:58:36;;;;;;;11.00;2.10;;;;;;;18.06;84.73;101850.41;7397561;19;19922;-66
2023/10/07 10:01:28;;;;;;;10.30;2.40;;;;;;;18.06;85.27;101860.47;7396327;19;20285;-66
2023/10/07 10:04:11;;;;;;;9.32;2.22;;;;;;;18.01;85.30;101865.69;7395587;19;19922;-66
2023/10/07 10:06:56;;;;;;;11.68;3.65;;;;;;;17.98;85.60;101874.28;7397319;19;20336;-66
2023/10/07 10:09:27;;;;;;;8.77;2.38;;;;;;;17.96;85.45;101870.91;7396236;19;19918;-66
2023/10/07 10:12:18;;;;;;;9.15;2.40;;;;;;;17.96;85.85;101854.53;7397288;19;19975;-66
2023/10/07 10:15:50;;;;;;;13.45;2.90;;;;;;;17.95;86.11;101861.88;7398804;19;19919;-66
2023/10/07 10:17:48;;;;;;;9.27;2.42;;;;;;;17.92;84.91;101867.75;7402291;19;20648;-66
2023/10/07 10:20:18;;;;;;;10.07;2.88;;;;;;;17.93;85.24;101872.16;7403692;19;19923;-66
2023/10/07 10:22:53;;;;;;;7.22;2.70;;;;;;;17.91;83.64;101870.66;7403306;19;19946;-66
2023/10/07 10:25:36;;;;;;;11.63;2.88;;;;;;;17.91;84.46;101874.22;7403818;19;19922;-66
2023/10/07 10:28:10;;;;;;;10.32;2.40;;;;;;;17.93;84.49;101882.22;7402906;19;19926;-66
2023/10/07 10:30:50;;;;;;;6.88;2.17;;;;;;;17.93;83.62;101914.94;7402384;19;19914;-66
2023/10/07 10:33:23;;;;;;;11.52;3.65;;;;;;;17.98;83.92;101879.75;7403442;19;19929;-66
2023/10/07 10:35:57;;;;;;;9.10;2.70;;;;;;;18.02;84.06;101875.56;7402386;19;20308;-66
2023/10/07 10:38:37;;;;;;;7.25;2.47;;;;;;;18.06;83.48;101888.59;7403067;19;20019;-66
2023/10/07 10:41:08;;;;;;;11.80;2.80;;;;;;;18.14;83.64;101877.50;7403513;19;20285;-66
2023/10/07 10:43:39;;;;;;;12.35;3.30;;;;;;;18.23;82.32;101880.06;7401924;19;20006;-66
2023/10/07 10:46:09;;;;;;;18.60;6.25;;;;;;;18.36;82.29;101878.25;7403357;19;19914;-66
2023/10/07 10:48:40;;;;;;;13.73;3.70;;;;;;;18.49;82.34;101902.00;7402445;19;20609;-66
2023/10/07 10:51:12;;;;;;;15.50;3.75;;;;;;;18.60;80.36;101885.06;7402118;19;19914;-66
2023/10/07 10:53:42;;;;;;;12.57;3.20;;;;;;;18.78;79.37;101890.78;7401812;19;19933;-66
2023/10/07 10:56:11;;;;;;;14.60;3.30;;;;;;;18.89;79.37;101898.41;7402175;19;19914;-66
2023/10/07 10:58:42;;;;;;;15.70;3.60;;;;;;;18.93;77.90;101902.41;7402580;19;19942;-66
2023/10/07 11:01:11;;;;;;;21.67;3.60;;;;;;;18.96;77.75;101895.66;7401778;19;19960;-66
2023/10/07 11:03:40;;;;;;;12.52;2.72;;;;;;;18.94;78.16;101897.78;7402479;19;19978;-66
2023/10/07 11:06:10;;;;;;;10.57;2.90;;;;;;;18.97;77.51;101903.66;7402271;19;19922;-66
2023/10/07 11:08:40;;;;;;;11.07;3.33;;;;;;;19.01;77.42;101925.94;7402793;19;19923;-66
2023/10/07 11:11:10;;;;;;;14.13;3.03;;;;;;;19.01;77.37;101902.19;7401081;19;19943;-67
2023/10/07 11:13:44;;;;;;;13.00;2.83;;;;;;;18.93;76.79;101901.56;7401174;19;19923;-66
2023/10/07 11:16:12;;;;;;;12.20;3.35;;;;;;;18.83;77.61;101898.38;7402066;19;19944;-66
2023/10/07 11:18:45;;;;;;;12.70;3.47;;;;;;;18.73;77.56;101906.09;7401318;19;19926;-66
2023/10/07 11:21:15;;;;;;;8.93;2.47;;;;;;;18.68;77.50;101904.00;7401217;19;19982;-66
2023/10/07 11:23:49;;;;;;;14.80;3.85;;;;;;;18.68;77.56;101894.97;7400621;19;19929;-67
2023/10/07 11:26:18;;;;;;;7.85;2.95;;;;;;;18.68;77.70;101908.63;7401237;19;19919;-66
2023/10/07 11:28:50;;;;;;;12.80;3.40;;;;;;;18.61;76.87;101905.88;7402386;19;19951;-66
2023/10/07 11:31:30;;;;;;;10.88;2.65;;;;;;;18.50;76.28;101912.72;7400709;19;19929;-66
2023/10/07 11:33:59;;;;;;;12.25;2.80;;;;;;;18.53;77.99;101919.69;7400928;19;19926;-66
2023/10/07 11:36:28;;;;;;;11.63;3.63;;;;;;;18.49;78.39;101910.19;7401689;19;19922;-66
2023/10/07 11:38:56;;;;;;;14.82;3.72;;;;;;;18.48;78.18;101909.34;7400477;19;19922;-66
2023/10/07 11:41:25;;;;;;;11.88;2.45;;;;;;;18.45;78.13;101915.22;7399152;19;19930;-66
2023/10/07 11:43:57;;;;;;;12.65;3.42;;;;;;;18.42;78.23;101917.53;7399989;19;19922;-66
2023/10/07 11:46:27;;;;;;;14.57;3.63;;;;;;;18.39;79.12;101915.19;7401644;19;19948;-66
2023/10/07 11:48:56;;;;;;;10.95;3.65;;;;;;;18.40;78.84;101914.13;7401078;19;19930;-66
2023/10/07 11:51:26;;;;;;;8.73;2.80;;;;;;;18.42;78.71;101925.72;7400987;19;19974;-66
2023/10/07 11:53:56;;;;;;;10.90;3.22;;;;;;;18.42;78.74;101914.81;7400518;19;19926;-66